F/V Oceanis — FHLH — position and weather

sailwx.info

Track history (hours):
 
Tides and Currents Weather Stations Pressure Air Temp Water Temp Dewpoint Dewpoint Depression Visibility Wind Speed Wind Dir Waves Ship Positions

F/V Oceanis

Last reported at 2014-Oct-30 13:33 UTC. Time now 2014-Oct-30 13:52 UTC.
Position N 44°39' W 001°09'.

Length 16 m.

Type: Other ship. MMSI: 228385000.

Date/timePositionNaut miles runAvg speedWind from/ knotsBaromVisibWave heightAir tempDewpointWater temp
2014-Oct-30 13:33N 44°39' W 001°09'0 0.0
2014-Oct-30 12:33N 44°39' W 001°09'0 0.0
2014-Oct-30 11:33N 44°39' W 001°09'0 0.0
2014-Oct-30 10:33N 44°39' W 001°09'0 0.0
2014-Oct-30 09:33N 44°39' W 001°09'0 0.0
2014-Oct-30 08:33N 44°39' W 001°09'0 0.0
2014-Oct-30 07:34N 44°39' W 001°09'0 0.0
2014-Oct-30 06:33N 44°39' W 001°09'0 0.0
2014-Oct-30 05:34N 44°39' W 001°09'0 0.0
2014-Oct-30 04:33N 44°39' W 001°09'0 0.0
2014-Oct-30 03:33N 44°39' W 001°09'0 0.0
2014-Oct-30 02:33N 44°39' W 001°09'0 0.0
2014-Oct-30 01:33N 44°39' W 001°09'0 0.0
2014-Oct-30 00:33N 44°39' W 001°09'0 0.0
2014-Oct-29 23:33N 44°39' W 001°09'0 0.0
2014-Oct-29 22:34N 44°39' W 001°09'0 0.0
2014-Oct-29 21:34N 44°39' W 001°09'0 0.0
2014-Oct-29 20:33N 44°39' W 001°09'0 0.0
2014-Oct-29 19:33N 44°39' W 001°09'0 0.0
2014-Oct-29 18:33N 44°39' W 001°09'  
2014-Oct-27 11:33N 44°39' W 001°09'0 0.0
2014-Oct-27 10:34N 44°39' W 001°09'0 0.0
2014-Oct-26 13:34N 44°39' W 001°09'0 0.0
2014-Oct-26 12:34N 44°39' W 001°09'0 0.0
2014-Oct-26 11:33N 44°39' W 001°09'0 0.0
2014-Oct-26 10:34N 44°39' W 001°09'0 0.0
2014-Oct-26 09:33N 44°39' W 001°09'0 0.0
2014-Oct-26 08:34N 44°39' W 001°09'0 0.0
2014-Oct-26 07:33N 44°39' W 001°09'0 0.0
2014-Oct-26 06:34N 44°39' W 001°09'0 0.0
2014-Oct-26 05:33N 44°39' W 001°09'5 4.8
2014-Oct-26 04:33N 44°37' W 001°14'5 4.6
2014-Oct-26 03:34N 44°37' W 001°21'6 6.3
2014-Oct-26 02:34N 44°43' W 001°24'6 6.0
2014-Oct-26 01:33N 44°48' W 001°28'86 2.9
2014-Oct-24 19:25N 46°10' W 002°07'10 0.9
2014-Oct-24 07:32N 45°60' W 002°12'  
Track history (hours):
 
Tides and Currents Weather Stations Pressure Air Temp Water Temp Dewpoint Dewpoint Depression Visibility Wind Speed Wind Dir Waves Ship Positions

F/V Oceanis

Last reported at 2014-Oct-30 13:33 UTC. Time now 2014-Oct-30 13:52 UTC.
Position N 44°39' W 001°09'.

Length 16 m.

Type: Other ship. MMSI: 228385000.

Date/timePositionNaut miles runAvg speedWind from/ knotsBaromVisibWave heightAir tempDewpointWater temp
2014-Oct-30 13:33N 44°39' W 001°09'0 0.0
2014-Oct-30 12:33N 44°39' W 001°09'0 0.0
2014-Oct-30 11:33N 44°39' W 001°09'0 0.0
2014-Oct-30 10:33N 44°39' W 001°09'0 0.0
2014-Oct-30 09:33N 44°39' W 001°09'0 0.0
2014-Oct-30 08:33N 44°39' W 001°09'0 0.0
2014-Oct-30 07:34N 44°39' W 001°09'0 0.0
2014-Oct-30 06:33N 44°39' W 001°09'0 0.0
2014-Oct-30 05:34N 44°39' W 001°09'0 0.0
2014-Oct-30 04:33N 44°39' W 001°09'0 0.0
2014-Oct-30 03:33N 44°39' W 001°09'0 0.0
2014-Oct-30 02:33N 44°39' W 001°09'0 0.0
2014-Oct-30 01:33N 44°39' W 001°09'0 0.0
2014-Oct-30 00:33N 44°39' W 001°09'0 0.0
2014-Oct-29 23:33N 44°39' W 001°09'0 0.0
2014-Oct-29 22:34N 44°39' W 001°09'0 0.0
2014-Oct-29 21:34N 44°39' W 001°09'0 0.0
2014-Oct-29 20:33N 44°39' W 001°09'0 0.0
2014-Oct-29 19:33N 44°39' W 001°09'0 0.0
2014-Oct-29 18:33N 44°39' W 001°09'  
2014-Oct-27 11:33N 44°39' W 001°09'0 0.0
2014-Oct-27 10:34N 44°39' W 001°09'0 0.0
2014-Oct-26 13:34N 44°39' W 001°09'0 0.0
2014-Oct-26 12:34N 44°39' W 001°09'0 0.0
2014-Oct-26 11:33N 44°39' W 001°09'0 0.0
2014-Oct-26 10:34N 44°39' W 001°09'0 0.0
2014-Oct-26 09:33N 44°39' W 001°09'0 0.0
2014-Oct-26 08:34N 44°39' W 001°09'0 0.0
2014-Oct-26 07:33N 44°39' W 001°09'0 0.0
2014-Oct-26 06:34N 44°39' W 001°09'0 0.0
2014-Oct-26 05:33N 44°39' W 001°09'5 4.8
2014-Oct-26 04:33N 44°37' W 001°14'5 4.6
2014-Oct-26 03:34N 44°37' W 001°21'6 6.3
2014-Oct-26 02:34N 44°43' W 001°24'6 6.0
2014-Oct-26 01:33N 44°48' W 001°28'86 2.9
2014-Oct-24 19:25N 46°10' W 002°07'10 0.9
2014-Oct-24 07:32N 45°60' W 002°12'  

Dump ship's entire track history